createdAt,value
2019-01-22T00:01:00.187Z,85.96
2019-01-22T00:03:28.749Z,85.98
2019-01-22T00:05:57.167Z,86.65
2019-01-22T00:08:25.530Z,86.16
2019-01-22T00:10:54.260Z,85.92
2019-01-22T00:13:23.011Z,85.84
2019-01-22T00:15:51.387Z,85.62
2019-01-22T00:18:19.877Z,86.04
2019-01-22T00:20:48.975Z,86.22
2019-01-22T00:23:18.865Z,86.04
2019-01-22T00:25:47.513Z,85.69
2019-01-22T00:28:16.047Z,86.08
2019-01-22T00:30:44.395Z,86.35
2019-01-22T00:33:13.024Z,86.19
2019-01-22T00:35:41.455Z,86.62
2019-01-22T00:38:10.028Z,85.99
2019-01-22T00:40:38.635Z,86.37
2019-01-22T00:43:07.048Z,85.84
2019-01-22T00:45:35.794Z,85.46
2019-01-22T00:48:05.061Z,85.49
2019-01-22T00:50:33.655Z,85.93
2019-01-22T00:53:02.523Z,87.06
2019-01-22T00:55:31.529Z,85.95
2019-01-22T00:58:00.206Z,86.10
2019-01-22T01:00:30.365Z,85.95
2019-01-22T01:02:59.235Z,85.93
2019-01-22T01:05:28.612Z,85.73
2019-01-22T01:07:59.176Z,85.52
2019-01-22T01:10:27.868Z,85.95
2019-01-22T01:12:56.345Z,86.18
2019-01-22T01:15:25.005Z,85.81
2019-01-22T01:17:53.881Z,85.54
2019-01-22T01:20:24.942Z,85.79
2019-01-22T01:22:54.553Z,85.82
2019-01-22T01:25:25.547Z,85.68
2019-01-22T01:27:54.531Z,85.79
2019-01-22T01:30:25.661Z,86.33
2019-01-22T01:32:56.054Z,86.06
2019-01-22T01:35:26.103Z,85.46
2019-01-22T01:37:55.208Z,85.33
2019-01-22T01:40:31.108Z,85.18
2019-01-22T01:43:00.762Z,85.08
2019-01-22T01:45:30.178Z,86.23
2019-01-22T01:48:00.932Z,86.07
2019-01-22T01:50:30.227Z,85.80
2019-01-22T01:52:59.912Z,85.29
2019-01-22T01:55:30.828Z,85.38
2019-01-22T01:58:03.141Z,85.62
2019-01-22T02:00:31.850Z,85.56
2019-01-22T02:03:02.518Z,85.98
2019-01-22T02:05:31.265Z,85.94
2019-01-22T02:08:00.596Z,86.00
2019-01-22T02:10:31.029Z,86.84
2019-01-22T02:13:06.448Z,86.01
2019-01-22T02:15:38.169Z,86.20
2019-01-22T02:18:33.707Z,86.95
2019-01-22T02:21:37.153Z,86.17
2019-01-22T02:24:28.155Z,86.33
2019-01-22T02:27:15.930Z,86.01
2019-01-22T02:30:00.364Z,86.54
2019-01-22T02:32:50.942Z,86.30
2019-01-22T02:35:47.889Z,85.96
2019-01-22T02:38:35.819Z,85.81
2019-01-22T02:41:10.605Z,85.99
2019-01-22T02:44:02.345Z,86.14
2019-01-22T02:46:37.624Z,86.01
2019-01-22T02:49:32.214Z,86.29
2019-01-22T02:52:21.133Z,86.24
2019-01-22T02:55:08.970Z,85.73
2019-01-22T02:57:46.802Z,85.90
2019-01-22T03:00:27.349Z,85.86
2019-01-22T03:03:21.685Z,85.89
2019-01-22T03:06:11.273Z,86.98
2019-01-22T03:08:46.108Z,86.16
2019-01-22T03:11:30.522Z,86.89
2019-01-22T03:14:13.442Z,87.64
2019-01-22T03:17:16.778Z,86.56
2019-01-22T03:20:04.353Z,86.31
2019-01-22T03:23:03.179Z,87.79
2019-01-22T03:25:56.294Z,88.21
2019-01-22T03:28:41.068Z,87.45
2019-01-22T03:31:18.738Z,86.79
2019-01-22T03:34:06.837Z,86.85
2019-01-22T03:36:58.759Z,86.69
2019-01-22T03:39:31.222Z,86.84
2019-01-22T03:42:05.408Z,86.75
2019-01-22T03:44:43.305Z,86.76
2019-01-22T03:47:22.207Z,86.63
2019-01-22T03:49:54.236Z,87.66
2019-01-22T03:52:42.377Z,87.37
2019-01-22T03:55:36.357Z,87.18
2019-01-22T03:58:09.475Z,86.62
2019-01-22T04:00:45.838Z,86.36
2019-01-22T04:03:14.723Z,86.31
2019-01-22T04:05:45.337Z,86.31
2019-01-22T04:08:15.471Z,86.58
2019-01-22T04:10:54.236Z,86.59
2019-01-22T04:13:36.293Z,86.24
2019-01-22T04:16:08.883Z,86.37
2019-01-22T04:18:42.435Z,86.35
2019-01-22T04:21:20.479Z,86.46
2019-01-22T04:24:03.580Z,86.45
2019-01-22T04:26:40.215Z,86.27
2019-01-22T04:29:20.767Z,85.95
2019-01-22T04:31:54.552Z,86.16
2019-01-22T04:34:42.869Z,85.90
2019-01-22T04:37:43.133Z,85.90
2019-01-22T04:40:35.358Z,86.31
2019-01-22T04:43:36.122Z,86.58
2019-01-22T04:46:30.376Z,86.43
2019-01-22T04:49:20.034Z,86.73
2019-01-22T04:52:00.463Z,86.64
2019-01-22T04:54:51.074Z,86.94
2019-01-22T04:57:30.640Z,86.69
2019-01-22T05:00:24.228Z,86.76
2019-01-22T05:03:11.810Z,86.85
2019-01-22T05:06:08.353Z,86.97
2019-01-22T05:08:55.024Z,86.83
2019-01-22T05:11:34.464Z,86.80
2019-01-22T05:14:09.811Z,88.02
2019-01-22T05:16:52.912Z,87.99
2019-01-22T05:19:24.960Z,88.61
2019-01-22T05:22:18.468Z,87.89
2019-01-22T05:25:05.960Z,87.77
2019-01-22T05:28:11.791Z,87.39
2019-01-22T05:30:45.070Z,87.18
2019-01-22T05:33:41.501Z,87.27
2019-01-22T05:36:34.711Z,87.43
2019-01-22T05:39:14.753Z,87.10
2019-01-22T05:42:00.271Z,87.71
2019-01-22T05:44:36.047Z,87.45
2019-01-22T05:47:26.640Z,87.38
2019-01-22T05:50:13.418Z,87.24
2019-01-22T05:53:07.038Z,87.30
2019-01-22T05:55:37.254Z,87.33
2019-01-22T05:58:23.544Z,87.60
2019-01-22T06:00:53.692Z,87.44
2019-01-22T06:03:32.806Z,87.93
2019-01-22T06:06:29.163Z,88.33
2019-01-22T06:09:22.600Z,87.53
2019-01-22T06:12:16.329Z,87.54
2019-01-22T06:15:15.952Z,87.66
2019-01-22T06:18:06.447Z,87.54
2019-01-22T06:20:57.004Z,87.39
2019-01-22T06:23:47.358Z,87.23
2019-01-22T06:26:34.856Z,87.27
2019-01-22T06:29:21.057Z,87.28
2019-01-22T06:32:01.624Z,87.04
2019-01-22T06:34:47.685Z,86.87
2019-01-22T06:37:24.934Z,87.39
2019-01-22T06:39:58.728Z,87.50
2019-01-22T06:42:55.284Z,87.46
2019-01-22T06:45:34.445Z,87.61
2019-01-22T06:48:17.757Z,87.19
2019-01-22T06:51:03.819Z,86.96
2019-01-22T06:53:34.946Z,87.13
2019-01-22T06:56:21.141Z,87.44
2019-01-22T06:59:24.116Z,87.02
2019-01-22T07:02:11.700Z,87.40
2019-01-22T07:04:49.450Z,88.13
2019-01-22T07:07:43.244Z,87.87
2019-01-22T07:10:37.424Z,87.74
2019-01-22T07:13:34.098Z,88.43
2019-01-22T07:16:15.441Z,88.05
2019-01-22T07:19:09.260Z,87.80
2019-01-22T07:21:54.799Z,88.22
2019-01-22T07:24:46.696Z,87.99
2019-01-22T07:27:33.661Z,87.47
2019-01-22T07:30:20.017Z,87.34
2019-01-22T07:32:59.619Z,87.32
2019-01-22T07:35:29.889Z,87.41
2019-01-22T07:38:32.644Z,87.13
2019-01-22T07:41:12.654Z,87.20
2019-01-22T07:43:47.123Z,88.49
2019-01-22T07:46:52.835Z,87.68
2019-01-22T07:49:28.455Z,88.07
2019-01-22T07:52:01.958Z,88.61
2019-01-22T07:54:33.316Z,88.14
2019-01-22T07:57:29.875Z,87.67
2019-01-22T08:00:17.485Z,87.82
2019-01-22T08:03:07.988Z,87.77
2019-01-22T08:05:55.859Z,88.70
2019-01-22T08:08:52.124Z,87.62
2019-01-22T08:11:54.792Z,88.23
2019-01-22T08:14:51.285Z,88.25
2019-01-22T08:17:23.148Z,88.08
2019-01-22T08:20:04.419Z,87.60
2019-01-22T08:23:01.023Z,87.54
2019-01-22T08:25:38.388Z,87.76
2019-01-22T08:28:19.867Z,87.59
2019-01-22T08:31:19.476Z,88.27
2019-01-22T08:34:07.115Z,87.64
2019-01-22T08:37:00.527Z,87.74
2019-01-22T08:39:54.075Z,87.13
2019-01-22T08:42:53.703Z,87.84
2019-01-22T08:45:41.203Z,87.52
2019-01-22T08:48:18.460Z,87.76
2019-01-22T08:51:09.927Z,87.97
2019-01-22T08:54:01.837Z,87.81
2019-01-22T08:56:52.568Z,88.84
2019-01-22T08:59:52.197Z,89.13
2019-01-22T09:02:38.398Z,88.86
2019-01-22T09:05:37.964Z,88.69
2019-01-22T09:08:25.532Z,89.07
2019-01-22T09:11:04.115Z,89.38
2019-01-22T09:14:07.112Z,89.41
2019-01-22T09:16:43.811Z,88.54
2019-01-22T09:19:24.297Z,88.23
2019-01-22T09:22:17.872Z,88.13
2019-01-22T09:25:07.217Z,88.26
2019-01-22T09:27:57.796Z,88.92
2019-01-22T09:30:33.632Z,88.80
2019-01-22T09:33:24.209Z,88.98
2019-01-22T09:36:12.349Z,88.72
2019-01-22T09:38:42.366Z,88.68
2019-01-22T09:41:11.275Z,88.45
2019-01-22T09:43:40.513Z,88.62
2019-01-22T09:46:09.041Z,88.73
2019-01-22T09:48:37.951Z,88.83
2019-01-22T09:51:09.101Z,88.92
2019-01-22T09:53:42.303Z,88.94
2019-01-22T09:56:13.880Z,89.04
2019-01-22T09:58:46.520Z,88.83
2019-01-22T10:01:22.313Z,89.12
2019-01-22T10:03:55.556Z,89.09
2019-01-22T10:06:27.332Z,89.55
2019-01-22T10:11:50.573Z,89.59
2019-01-22T10:14:54.732Z,90.21
2019-01-22T10:17:34.274Z,90.20
2019-01-22T10:20:19.698Z,89.36
2019-01-22T10:23:21.134Z,89.33
2019-01-22T10:26:01.930Z,89.72
2019-01-22T10:29:24.365Z,90.58
2019-01-22T10:32:02.059Z,90.00
2019-01-22T10:34:54.528Z,90.33
2019-01-22T10:38:03.044Z,90.57
2019-01-22T10:41:13.457Z,90.37
2019-01-22T10:44:27.829Z,90.27
2019-01-22T10:50:14.089Z,89.99
2019-01-22T10:53:10.524Z,89.66
2019-01-22T10:55:50.007Z,89.80
2019-01-22T10:59:08.163Z,89.71
2019-01-22T11:02:33.952Z,89.57
2019-01-22T11:08:39.540Z,89.05
2019-01-22T11:18:33.730Z,89.26
2019-01-22T11:42:08.457Z,89.45
2019-01-22T11:44:57.146Z,88.66
2019-01-22T11:50:56.473Z,88.98
2019-01-22T12:11:36.478Z,90.26
2019-01-22T14:22:02.481Z,89.57
2019-01-22T14:25:23.947Z,88.80
2019-01-22T14:28:33.548Z,88.94
2019-01-22T14:34:11.728Z,88.50
2019-01-22T14:37:12.527Z,88.17
2019-01-22T14:39:47.253Z,89.05
2019-01-22T14:42:19.635Z,89.39
2019-01-22T14:45:02.901Z,89.55
2019-01-22T14:47:37.066Z,89.91
2019-01-22T14:50:24.324Z,87.97
2019-01-22T14:53:44.573Z,88.24
2019-01-22T14:56:47.214Z,87.52
2019-01-22T15:24:15.827Z,89.07
2019-01-22T15:34:08.949Z,86.34
2019-01-22T16:48:34.861Z,85.96
2019-01-22T16:55:11.859Z,85.72
